sensor_id;sensor_type;location;lat;lon;timestamp;P1;durP1;ratioP1;P2;durP2;ratioP2
815;SDS011;25928;51.062;13.752;2023-05-21T00:01:33;27.93;;;24.77;;
815;SDS011;25928;51.062;13.752;2023-05-21T00:03:59;25.10;;;22.40;;
815;SDS011;25928;51.062;13.752;2023-05-21T00:06:27;30.47;;;23.93;;
815;SDS011;25928;51.062;13.752;2023-05-21T00:08:53;27.60;;;24.23;;
815;SDS011;25928;51.062;13.752;2023-05-21T00:11:18;27.60;;;22.43;;
815;SDS011;25928;51.062;13.752;2023-05-21T00:13:44;26.97;;;24.00;;
815;SDS011;25928;51.062;13.752;2023-05-21T00:16:09;25.07;;;20.90;;
815;SDS011;25928;51.062;13.752;2023-05-21T00:18:36;26.57;;;23.70;;
815;SDS011;25928;51.062;13.752;2023-05-21T00:21:03;27.27;;;24.33;;
815;SDS011;25928;51.062;13.752;2023-05-21T00:23:29;27.20;;;23.43;;
815;SDS011;25928;51.062;13.752;2023-05-21T00:25:57;27.20;;;23.10;;
815;SDS011;25928;51.062;13.752;2023-05-21T00:28:23;29.27;;;24.13;;
815;SDS011;25928;51.062;13.752;2023-05-21T00:30:49;26.57;;;22.87;;
815;SDS011;25928;51.062;13.752;2023-05-21T00:33:15;28.00;;;24.23;;
815;SDS011;25928;51.062;13.752;2023-05-21T00:35:40;26.77;;;23.87;;
815;SDS011;25928;51.062;13.752;2023-05-21T00:38:06;25.10;;;22.40;;
815;SDS011;25928;51.062;13.752;2023-05-21T00:40:33;27.67;;;23.73;;
815;SDS011;25928;51.062;13.752;2023-05-21T00:43:05;26.10;;;23.30;;
815;SDS011;25928;51.062;13.752;2023-05-21T00:45:32;26.77;;;23.13;;
815;SDS011;25928;51.062;13.752;2023-05-21T00:48:00;27.23;;;24.30;;
815;SDS011;25928;51.062;13.752;2023-05-21T00:50:28;27.17;;;23.20;;
815;SDS011;25928;51.062;13.752;2023-05-21T00:52:54;30.00;;;24.00;;
815;SDS011;25928;51.062;13.752;2023-05-21T00:55:20;48.33;;;25.63;;
815;SDS011;25928;51.062;13.752;2023-05-21T00:57:46;29.90;;;24.90;;
815;SDS011;25928;51.062;13.752;2023-05-21T01:00:13;26.90;;;24.00;;
815;SDS011;25928;51.062;13.752;2023-05-21T01:02:40;24.43;;;21.93;;
815;SDS011;25928;51.062;13.752;2023-05-21T01:05:06;25.70;;;22.90;;
815;SDS011;25928;51.062;13.752;2023-05-21T01:07:35;29.90;;;24.30;;
815;SDS011;25928;51.062;13.752;2023-05-21T01:10:05;27.10;;;23.50;;
815;SDS011;25928;51.062;13.752;2023-05-21T01:12:33;28.63;;;25.10;;
815;SDS011;25928;51.062;13.752;2023-05-21T01:15:02;27.40;;;23.90;;
815;SDS011;25928;51.062;13.752;2023-05-21T01:17:29;28.07;;;23.73;;
815;SDS011;25928;51.062;13.752;2023-05-21T01:19:58;26.37;;;23.47;;
815;SDS011;25928;51.062;13.752;2023-05-21T01:22:25;28.90;;;23.87;;
815;SDS011;25928;51.062;13.752;2023-05-21T01:24:56;26.87;;;24.00;;
815;SDS011;25928;51.062;13.752;2023-05-21T01:27:21;27.57;;;24.07;;
815;SDS011;25928;51.062;13.752;2023-05-21T01:29:47;29.20;;;24.27;;
815;SDS011;25928;51.062;13.752;2023-05-21T01:37:29;26.03;;;23.23;;
815;SDS011;25928;51.062;13.752;2023-05-21T01:40:01;25.43;;;22.73;;
815;SDS011;25928;51.062;13.752;2023-05-21T01:42:35;27.73;;;23.90;;
815;SDS011;25928;51.062;13.752;2023-05-21T01:45:02;32.23;;;23.93;;
815;SDS011;25928;51.062;13.752;2023-05-21T01:47:30;27.50;;;23.00;;
815;SDS011;25928;51.062;13.752;2023-05-21T01:49:57;28.17;;;23.73;;
815;SDS011;25928;51.062;13.752;2023-05-21T01:52:23;32.33;;;24.73;;
815;SDS011;25928;51.062;13.752;2023-05-21T01:54:49;26.40;;;22.80;;
815;SDS011;25928;51.062;13.752;2023-05-21T01:57:15;28.60;;;24.10;;
815;SDS011;25928;51.062;13.752;2023-05-21T01:59:42;26.67;;;23.37;;
815;SDS011;25928;51.062;13.752;2023-05-21T02:02:08;25.47;;;22.57;;
815;SDS011;25928;51.062;13.752;2023-05-21T02:04:34;27.50;;;24.23;;
815;SDS011;25928;51.062;13.752;2023-05-21T02:06:59;27.20;;;23.03;;
815;SDS011;25928;51.062;13.752;2023-05-21T02:09:26;27.77;;;23.70;;
815;SDS011;25928;51.062;13.752;2023-05-21T02:11:51;24.47;;;21.50;;
815;SDS011;25928;51.062;13.752;2023-05-21T02:14:17;25.67;;;22.90;;
815;SDS011;25928;51.062;13.752;2023-05-21T02:16:44;27.77;;;23.90;;
815;SDS011;25928;51.062;13.752;2023-05-21T02:19:10;26.63;;;22.70;;
815;SDS011;25928;51.062;13.752;2023-05-21T02:21:35;26.40;;;22.87;;
815;SDS011;25928;51.062;13.752;2023-05-21T02:24:01;27.40;;;23.27;;
815;SDS011;25928;51.062;13.752;2023-05-21T02:26:27;25.97;;;23.17;;
815;SDS011;25928;51.062;13.752;2023-05-21T02:28:53;29.17;;;23.30;;
815;SDS011;25928;51.062;13.752;2023-05-21T02:31:19;29.63;;;23.60;;
815;SDS011;25928;51.062;13.752;2023-05-21T02:33:45;26.03;;;23.23;;
815;SDS011;25928;51.062;13.752;2023-05-21T02:36:10;27.83;;;23.93;;
815;SDS011;25928;51.062;13.752;2023-05-21T02:38:37;27.03;;;23.33;;
815;SDS011;25928;51.062;13.752;2023-05-21T02:41:05;29.13;;;24.30;;
815;SDS011;25928;51.062;13.752;2023-05-21T02:43:31;27.23;;;23.10;;
815;SDS011;25928;51.062;13.752;2023-05-21T02:45:56;26.10;;;22.67;;
815;SDS011;25928;51.062;13.752;2023-05-21T02:48:22;26.17;;;23.30;;
815;SDS011;25928;51.062;13.752;2023-05-21T02:50:47;29.13;;;23.33;;
815;SDS011;25928;51.062;13.752;2023-05-21T02:53:13;25.40;;;21.87;;
815;SDS011;25928;51.062;13.752;2023-05-21T02:55:38;25.83;;;23.10;;
815;SDS011;25928;51.062;13.752;2023-05-21T02:58:05;26.43;;;23.20;;
815;SDS011;25928;51.062;13.752;2023-05-21T03:00:31;25.20;;;22.50;;
815;SDS011;25928;51.062;13.752;2023-05-21T03:02:57;25.80;;;21.53;;
815;SDS011;25928;51.062;13.752;2023-05-21T03:05:22;27.40;;;22.37;;
815;SDS011;25928;51.062;13.752;2023-05-21T03:07:48;26.43;;;23.10;;
815;SDS011;25928;51.062;13.752;2023-05-21T03:10:14;27.43;;;21.67;;
815;SDS011;25928;51.062;13.752;2023-05-21T03:12:40;28.10;;;23.77;;
815;SDS011;25928;51.062;13.752;2023-05-21T03:15:06;25.67;;;22.83;;
815;SDS011;25928;51.062;13.752;2023-05-21T03:17:32;26.87;;;23.80;;
815;SDS011;25928;51.062;13.752;2023-05-21T03:19:57;26.90;;;24.03;;
815;SDS011;25928;51.062;13.752;2023-05-21T03:22:23;26.13;;;23.10;;
815;SDS011;25928;51.062;13.752;2023-05-21T03:24:49;27.60;;;24.50;;
815;SDS011;25928;51.062;13.752;2023-05-21T03:27:14;25.47;;;22.70;;
815;SDS011;25928;51.062;13.752;2023-05-21T03:29:40;25.67;;;22.50;;
815;SDS011;25928;51.062;13.752;2023-05-21T03:32:07;27.20;;;22.70;;
815;SDS011;25928;51.062;13.752;2023-05-21T03:34:32;27.13;;;22.90;;
815;SDS011;25928;51.062;13.752;2023-05-21T03:36:58;26.83;;;24.10;;
815;SDS011;25928;51.062;13.752;2023-05-21T03:39:24;29.27;;;22.57;;
815;SDS011;25928;51.062;13.752;2023-05-21T03:41:50;27.50;;;23.33;;
815;SDS011;25928;51.062;13.752;2023-05-21T03:44:15;26.83;;;22.87;;
815;SDS011;25928;51.062;13.752;2023-05-21T03:46:41;27.43;;;23.17;;
815;SDS011;25928;51.062;13.752;2023-05-21T03:49:08;25.60;;;22.93;;
815;SDS011;25928;51.062;13.752;2023-05-21T03:51:34;27.93;;;23.07;;
815;SDS011;25928;51.062;13.752;2023-05-21T03:54:02;26.17;;;23.37;;
815;SDS011;25928;51.062;13.752;2023-05-21T03:56:28;25.80;;;22.93;;
815;SDS011;25928;51.062;13.752;2023-05-21T03:58:53;24.73;;;22.00;;
815;SDS011;25928;51.062;13.752;2023-05-21T04:01:19;28.27;;;24.13;;
815;SDS011;25928;51.062;13.752;2023-05-21T04:03:45;27.23;;;23.33;;
815;SDS011;25928;51.062;13.752;2023-05-21T04:06:10;27.43;;;24.53;;
815;SDS011;25928;51.062;13.752;2023-05-21T04:08:36;25.03;;;21.20;;
815;SDS011;25928;51.062;13.752;2023-05-21T04:11:02;31.47;;;23.67;;
815;SDS011;25928;51.062;13.752;2023-05-21T04:13:27;27.47;;;23.40;;
815;SDS011;25928;51.062;13.752;2023-05-21T04:15:53;26.10;;;23.30;;
815;SDS011;25928;51.062;13.752;2023-05-21T04:18:19;25.80;;;22.87;;
815;SDS011;25928;51.062;13.752;2023-05-21T04:20:47;26.63;;;23.73;;
815;SDS011;25928;51.062;13.752;2023-05-21T04:23:14;26.60;;;22.00;;
815;SDS011;25928;51.062;13.752;2023-05-21T04:25:40;27.73;;;23.40;;
815;SDS011;25928;51.062;13.752;2023-05-21T04:28:05;27.50;;;23.90;;
815;SDS011;25928;51.062;13.752;2023-05-21T04:30:31;26.10;;;23.03;;
815;SDS011;25928;51.062;13.752;2023-05-21T04:32:59;24.07;;;21.63;;
815;SDS011;25928;51.062;13.752;2023-05-21T04:35:25;25.93;;;23.23;;
815;SDS011;25928;51.062;13.752;2023-05-21T04:37:51;25.33;;;22.63;;
815;SDS011;25928;51.062;13.752;2023-05-21T04:40:18;25.73;;;23.00;;
815;SDS011;25928;51.062;13.752;2023-05-21T04:42:49;25.13;;;22.43;;
815;SDS011;25928;51.062;13.752;2023-05-21T04:45:15;27.17;;;23.00;;
815;SDS011;25928;51.062;13.752;2023-05-21T04:47:45;24.27;;;21.80;;
815;SDS011;25928;51.062;13.752;2023-05-21T04:50:11;25.10;;;22.37;;
815;SDS011;25928;51.062;13.752;2023-05-21T04:52:37;25.17;;;21.10;;
815;SDS011;25928;51.062;13.752;2023-05-21T04:55:04;24.93;;;22.13;;
815;SDS011;25928;51.062;13.752;2023-05-21T04:57:31;24.57;;;21.93;;
815;SDS011;25928;51.062;13.752;2023-05-21T04:59:56;24.53;;;21.43;;
815;SDS011;25928;51.062;13.752;2023-05-21T05:02:22;23.00;;;20.70;;
815;SDS011;25928;51.062;13.752;2023-05-21T05:04:47;26.30;;;23.50;;
815;SDS011;25928;51.062;13.752;2023-05-21T05:07:13;24.00;;;21.50;;
815;SDS011;25928;51.062;13.752;2023-05-21T05:09:39;23.43;;;21.10;;
815;SDS011;25928;51.062;13.752;2023-05-21T05:12:05;25.23;;;22.57;;
815;SDS011;25928;51.062;13.752;2023-05-21T05:14:31;24.97;;;22.37;;
815;SDS011;25928;51.062;13.752;2023-05-21T05:16:57;24.70;;;22.17;;
815;SDS011;25928;51.062;13.752;2023-05-21T05:19:25;25.10;;;21.97;;
815;SDS011;25928;51.062;13.752;2023-05-21T05:21:51;26.53;;;22.30;;
815;SDS011;25928;51.062;13.752;2023-05-21T05:24:18;24.70;;;22.30;;
815;SDS011;25928;51.062;13.752;2023-05-21T05:26:43;23.10;;;20.77;;
815;SDS011;25928;51.062;13.752;2023-05-21T05:29:09;24.83;;;22.33;;
815;SDS011;25928;51.062;13.752;2023-05-21T05:31:35;22.53;;;20.23;;
815;SDS011;25928;51.062;13.752;2023-05-21T05:34:01;22.23;;;20.00;;
815;SDS011;25928;51.062;13.752;2023-05-21T05:36:26;23.20;;;20.90;;
815;SDS011;25928;51.062;13.752;2023-05-21T05:38:52;22.17;;;20.17;;
815;SDS011;25928;51.062;13.752;2023-05-21T05:41:17;22.03;;;20.00;;
815;SDS011;25928;51.062;13.752;2023-05-21T05:43:43;23.00;;;20.77;;
815;SDS011;25928;51.062;13.752;2023-05-21T05:46:09;23.07;;;20.87;;
815;SDS011;25928;51.062;13.752;2023-05-21T05:48:34;22.43;;;20.13;;
815;SDS011;25928;51.062;13.752;2023-05-21T05:51:00;21.70;;;19.57;;
815;SDS011;25928;51.062;13.752;2023-05-21T05:53:25;21.17;;;19.17;;
815;SDS011;25928;51.062;13.752;2023-05-21T05:55:51;22.63;;;20.40;;
815;SDS011;25928;51.062;13.752;2023-05-21T05:58:17;22.50;;;20.40;;
815;SDS011;25928;51.062;13.752;2023-05-21T06:00:42;21.47;;;19.40;;
815;SDS011;25928;51.062;13.752;2023-05-21T06:03:08;22.63;;;20.50;;
815;SDS011;25928;51.062;13.752;2023-05-21T06:05:33;20.17;;;18.17;;
815;SDS011;25928;51.062;13.752;2023-05-21T06:07:59;21.30;;;19.20;;
815;SDS011;25928;51.062;13.752;2023-05-21T06:10:25;20.73;;;18.80;;
815;SDS011;25928;51.062;13.752;2023-05-21T06:12:51;20.93;;;18.97;;
815;SDS011;25928;51.062;13.752;2023-05-21T06:15:16;20.57;;;18.77;;
815;SDS011;25928;51.062;13.752;2023-05-21T06:17:43;21.47;;;19.43;;
815;SDS011;25928;51.062;13.752;2023-05-21T06:20:09;20.57;;;18.67;;
815;SDS011;25928;51.062;13.752;2023-05-21T06:22:35;22.13;;;20.03;;
815;SDS011;25928;51.062;13.752;2023-05-21T06:25:01;19.43;;;17.70;;
815;SDS011;25928;51.062;13.752;2023-05-21T06:27:27;20.00;;;17.90;;
815;SDS011;25928;51.062;13.752;2023-05-21T06:29:53;19.70;;;17.83;;
815;SDS011;25928;51.062;13.752;2023-05-21T06:32:18;20.93;;;18.93;;
815;SDS011;25928;51.062;13.752;2023-05-21T06:34:45;20.67;;;18.70;;
815;SDS011;25928;51.062;13.752;2023-05-21T06:37:11;19.20;;;17.30;;
815;SDS011;25928;51.062;13.752;2023-05-21T06:39:36;22.57;;;20.13;;
815;SDS011;25928;51.062;13.752;2023-05-21T06:42:02;18.67;;;17.03;;
815;SDS011;25928;51.062;13.752;2023-05-21T06:44:28;19.90;;;17.83;;
815;SDS011;25928;51.062;13.752;2023-05-21T06:46:53;20.40;;;18.27;;
815;SDS011;25928;51.062;13.752;2023-05-21T06:49:19;19.87;;;17.87;;
815;SDS011;25928;51.062;13.752;2023-05-21T06:51:45;19.33;;;17.43;;
815;SDS011;25928;51.062;13.752;2023-05-21T06:54:11;21.37;;;19.27;;
815;SDS011;25928;51.062;13.752;2023-05-21T06:56:37;18.97;;;17.10;;
815;SDS011;25928;51.062;13.752;2023-05-21T06:59:02;19.53;;;17.73;;
815;SDS011;25928;51.062;13.752;2023-05-21T07:01:28;18.37;;;16.67;;
815;SDS011;25928;51.062;13.752;2023-05-21T07:03:54;18.83;;;16.83;;
815;SDS011;25928;51.062;13.752;2023-05-21T07:06:20;19.70;;;17.63;;
815;SDS011;25928;51.062;13.752;2023-05-21T07:08:46;19.33;;;17.47;;
815;SDS011;25928;51.062;13.752;2023-05-21T07:11:13;18.40;;;16.73;;
815;SDS011;25928;51.062;13.752;2023-05-21T07:13:39;21.23;;;18.17;;
815;SDS011;25928;51.062;13.752;2023-05-21T07:16:05;19.23;;;17.50;;
815;SDS011;25928;51.062;13.752;2023-05-21T07:18:31;19.30;;;17.30;;
815;SDS011;25928;51.062;13.752;2023-05-21T07:20:56;19.50;;;17.60;;
815;SDS011;25928;51.062;13.752;2023-05-21T07:23:22;18.63;;;16.80;;
815;SDS011;25928;51.062;13.752;2023-05-21T07:25:48;17.93;;;16.40;;
815;SDS011;25928;51.062;13.752;2023-05-21T07:28:14;17.90;;;16.30;;
815;SDS011;25928;51.062;13.752;2023-05-21T07:30:39;18.50;;;16.80;;
815;SDS011;25928;51.062;13.752;2023-05-21T07:33:05;19.80;;;17.97;;
815;SDS011;25928;51.062;13.752;2023-05-21T07:35:30;17.53;;;15.83;;
815;SDS011;25928;51.062;13.752;2023-05-21T07:37:56;18.43;;;16.73;;
815;SDS011;25928;51.062;13.752;2023-05-21T07:40:22;20.10;;;18.03;;
815;SDS011;25928;51.062;13.752;2023-05-21T07:42:47;17.90;;;16.20;;
815;SDS011;25928;51.062;13.752;2023-05-21T07:45:13;18.07;;;16.47;;
815;SDS011;25928;51.062;13.752;2023-05-21T07:47:38;18.60;;;16.80;;
815;SDS011;25928;51.062;13.752;2023-05-21T07:50:04;18.03;;;16.43;;
815;SDS011;25928;51.062;13.752;2023-05-21T07:52:30;19.47;;;17.17;;
815;SDS011;25928;51.062;13.752;2023-05-21T07:54:56;19.67;;;17.60;;
815;SDS011;25928;51.062;13.752;2023-05-21T07:57:21;18.53;;;16.73;;
815;SDS011;25928;51.062;13.752;2023-05-21T07:59:47;17.67;;;16.07;;
815;SDS011;25928;51.062;13.752;2023-05-21T08:02:13;19.03;;;17.33;;
815;SDS011;25928;51.062;13.752;2023-05-21T08:04:38;17.87;;;16.20;;
815;SDS011;25928;51.062;13.752;2023-05-21T08:07:04;17.90;;;16.20;;
815;SDS011;25928;51.062;13.752;2023-05-21T08:09:30;18.67;;;16.97;;
815;SDS011;25928;51.062;13.752;2023-05-21T08:11:56;18.10;;;16.60;;
815;SDS011;25928;51.062;13.752;2023-05-21T08:14:21;18.47;;;16.60;;
815;SDS011;25928;51.062;13.752;2023-05-21T08:16:47;17.73;;;16.17;;
815;SDS011;25928;51.062;13.752;2023-05-21T08:19:13;16.10;;;14.70;;
815;SDS011;25928;51.062;13.752;2023-05-21T08:21:38;18.00;;;16.47;;
815;SDS011;25928;51.062;13.752;2023-05-21T08:24:05;17.70;;;16.10;;
815;SDS011;25928;51.062;13.752;2023-05-21T08:26:31;18.47;;;16.87;;
815;SDS011;25928;51.062;13.752;2023-05-21T08:28:57;18.50;;;16.80;;
815;SDS011;25928;51.062;13.752;2023-05-21T08:31:23;19.57;;;17.87;;
815;SDS011;25928;51.062;13.752;2023-05-21T08:33:49;17.97;;;16.20;;
815;SDS011;25928;51.062;13.752;2023-05-21T08:36:16;18.07;;;16.43;;
815;SDS011;25928;51.062;13.752;2023-05-21T08:38:42;17.70;;;16.10;;
815;SDS011;25928;51.062;13.752;2023-05-21T08:41:07;17.80;;;16.20;;
815;SDS011;25928;51.062;13.752;2023-05-21T08:43:34;18.03;;;16.40;;
815;SDS011;25928;51.062;13.752;2023-05-21T08:46:03;17.73;;;16.03;;
815;SDS011;25928;51.062;13.752;2023-05-21T08:48:32;19.27;;;15.23;;
815;SDS011;25928;51.062;13.752;2023-05-21T08:51:00;16.87;;;15.43;;
815;SDS011;25928;51.062;13.752;2023-05-21T08:53:26;17.60;;;16.03;;
815;SDS011;25928;51.062;13.752;2023-05-21T08:55:52;17.77;;;15.90;;
815;SDS011;25928;51.062;13.752;2023-05-21T08:58:20;16.17;;;14.77;;
815;SDS011;25928;51.062;13.752;2023-05-21T09:00:45;17.80;;;16.10;;
815;SDS011;25928;51.062;13.752;2023-05-21T09:03:11;17.17;;;15.47;;
815;SDS011;25928;51.062;13.752;2023-05-21T09:05:42;17.03;;;15.53;;
815;SDS011;25928;51.062;13.752;2023-05-21T09:08:13;16.17;;;14.77;;
815;SDS011;25928;51.062;13.752;2023-05-21T09:10:50;18.03;;;16.43;;
815;SDS011;25928;51.062;13.752;2023-05-21T09:13:16;16.47;;;14.87;;
815;SDS011;25928;51.062;13.752;2023-05-21T09:15:43;17.10;;;15.50;;
815;SDS011;25928;51.062;13.752;2023-05-21T09:18:09;16.77;;;15.27;;
815;SDS011;25928;51.062;13.752;2023-05-21T09:20:36;16.47;;;14.97;;
815;SDS011;25928;51.062;13.752;2023-05-21T09:23:02;17.33;;;15.43;;
815;SDS011;25928;51.062;13.752;2023-05-21T09:25:30;16.87;;;15.27;;
815;SDS011;25928;51.062;13.752;2023-05-21T09:27:57;16.00;;;14.43;;
815;SDS011;25928;51.062;13.752;2023-05-21T09:30:23;16.87;;;15.17;;
815;SDS011;25928;51.062;13.752;2023-05-21T09:32:55;15.83;;;14.43;;
815;SDS011;25928;51.062;13.752;2023-05-21T09:35:22;15.40;;;14.10;;
815;SDS011;25928;51.062;13.752;2023-05-21T09:37:49;14.90;;;13.70;;
815;SDS011;25928;51.062;13.752;2023-05-21T09:40:21;16.00;;;14.50;;
815;SDS011;25928;51.062;13.752;2023-05-21T09:42:48;15.20;;;13.87;;
815;SDS011;25928;51.062;13.752;2023-05-21T09:45:18;14.67;;;13.37;;
815;SDS011;25928;51.062;13.752;2023-05-21T09:47:45;17.17;;;15.67;;
815;SDS011;25928;51.062;13.752;2023-05-21T09:50:12;15.37;;;13.93;;
815;SDS011;25928;51.062;13.752;2023-05-21T09:52:42;17.30;;;15.70;;
815;SDS011;25928;51.062;13.752;2023-05-21T09:55:11;17.57;;;15.93;;
815;SDS011;25928;51.062;13.752;2023-05-21T09:57:40;16.33;;;14.93;;
815;SDS011;25928;51.062;13.752;2023-05-21T10:02:43;15.03;;;13.73;;
815;SDS011;25928;51.062;13.752;2023-05-21T10:05:11;15.70;;;14.30;;
815;SDS011;25928;51.062;13.752;2023-05-21T10:07:40;16.37;;;14.80;;
815;SDS011;25928;51.062;13.752;2023-05-21T10:10:12;15.57;;;14.07;;
815;SDS011;25928;51.062;13.752;2023-05-21T10:12:40;16.00;;;14.40;;
815;SDS011;25928;51.062;13.752;2023-05-21T10:15:10;15.00;;;13.80;;
815;SDS011;25928;51.062;13.752;2023-05-21T10:17:41;16.83;;;15.23;;
815;SDS011;25928;51.062;13.752;2023-05-21T10:20:09;15.10;;;13.70;;
815;SDS011;25928;51.062;13.752;2023-05-21T10:22:36;15.27;;;13.90;;
815;SDS011;25928;51.062;13.752;2023-05-21T10:25:01;14.47;;;13.03;;
815;SDS011;25928;51.062;13.752;2023-05-21T10:27:29;18.07;;;16.47;;
815;SDS011;25928;51.062;13.752;2023-05-21T10:29:56;15.37;;;14.07;;
815;SDS011;25928;51.062;13.752;2023-05-21T10:32:23;15.07;;;13.67;;
815;SDS011;25928;51.062;13.752;2023-05-21T10:34:54;15.13;;;13.83;;
815;SDS011;25928;51.062;13.752;2023-05-21T10:37:24;14.50;;;13.20;;
815;SDS011;25928;51.062;13.752;2023-05-21T10:39:51;16.33;;;14.90;;
815;SDS011;25928;51.062;13.752;2023-05-21T10:52:47;14.23;;;13.03;;
815;SDS011;25928;51.062;13.752;2023-05-21T11:01:15;11.50;;;10.50;;
815;SDS011;25928;51.062;13.752;2023-05-21T11:03:43;12.23;;;11.20;;
815;SDS011;25928;51.062;13.752;2023-05-21T11:06:10;10.67;;;9.67;;
815;SDS011;25928;51.062;13.752;2023-05-21T11:08:50;10.67;;;9.70;;
815;SDS011;25928;51.062;13.752;2023-05-21T11:17:09;10.93;;;10.00;;
815;SDS011;25928;51.062;13.752;2023-05-21T11:20:02;9.50;;;8.70;;
815;SDS011;25928;51.062;13.752;2023-05-21T11:22:31;9.40;;;8.60;;
815;SDS011;25928;51.062;13.752;2023-05-21T11:25:00;8.87;;;8.17;;
815;SDS011;25928;51.062;13.752;2023-05-21T11:27:36;9.40;;;8.53;;
815;SDS011;25928;51.062;13.752;2023-05-21T11:32:49;9.13;;;8.43;;
815;SDS011;25928;51.062;13.752;2023-05-21T11:35:34;9.70;;;8.90;;
815;SDS011;25928;51.062;13.752;2023-05-21T11:38:20;11.03;;;9.93;;
815;SDS011;25928;51.062;13.752;2023-05-21T11:40:49;11.70;;;10.67;;
815;SDS011;25928;51.062;13.752;2023-05-21T11:43:19;10.70;;;9.90;;
815;SDS011;25928;51.062;13.752;2023-05-21T11:45:45;11.00;;;9.93;;
815;SDS011;25928;51.062;13.752;2023-05-21T11:48:14;10.37;;;9.47;;
815;SDS011;25928;51.062;13.752;2023-05-21T11:50:40;10.63;;;9.53;;
815;SDS011;25928;51.062;13.752;2023-05-21T11:53:06;10.70;;;9.30;;
815;SDS011;25928;51.062;13.752;2023-05-21T11:55:33;10.47;;;9.57;;
815;SDS011;25928;51.062;13.752;2023-05-21T11:58:02;10.20;;;9.40;;
815;SDS011;25928;51.062;13.752;2023-05-21T12:00:29;10.63;;;9.63;;
815;SDS011;25928;51.062;13.752;2023-05-21T12:02:55;10.43;;;9.53;;
815;SDS011;25928;51.062;13.752;2023-05-21T12:05:22;10.73;;;9.83;;
815;SDS011;25928;51.062;13.752;2023-05-21T12:07:48;11.90;;;10.90;;
815;SDS011;25928;51.062;13.752;2023-05-21T12:10:14;12.60;;;11.50;;
815;SDS011;25928;51.062;13.752;2023-05-21T12:12:40;12.17;;;11.07;;
815;SDS011;25928;51.062;13.752;2023-05-21T12:15:06;12.93;;;11.83;;
815;SDS011;25928;51.062;13.752;2023-05-21T12:17:34;12.77;;;11.63;;
815;SDS011;25928;51.062;13.752;2023-05-21T12:19:59;13.17;;;11.93;;
815;SDS011;25928;51.062;13.752;2023-05-21T12:22:26;13.60;;;12.30;;
815;SDS011;25928;51.062;13.752;2023-05-21T12:24:55;13.93;;;12.67;;
815;SDS011;25928;51.062;13.752;2023-05-21T12:27:22;13.10;;;11.97;;
815;SDS011;25928;51.062;13.752;2023-05-21T12:29:49;12.73;;;11.63;;
815;SDS011;25928;51.062;13.752;2023-05-21T12:32:18;13.73;;;12.43;;
815;SDS011;25928;51.062;13.752;2023-05-21T12:34:46;15.37;;;13.83;;
815;SDS011;25928;51.062;13.752;2023-05-21T12:37:26;14.47;;;13.17;;
815;SDS011;25928;51.062;13.752;2023-05-21T12:40:00;13.43;;;12.23;;
815;SDS011;25928;51.062;13.752;2023-05-21T12:42:30;13.93;;;12.63;;
815;SDS011;25928;51.062;13.752;2023-05-21T12:44:59;14.67;;;13.40;;
815;SDS011;25928;51.062;13.752;2023-05-21T12:47:29;13.13;;;12.03;;
815;SDS011;25928;51.062;13.752;2023-05-21T12:49:56;13.20;;;11.93;;
815;SDS011;25928;51.062;13.752;2023-05-21T12:52:23;13.57;;;12.47;;
815;SDS011;25928;51.062;13.752;2023-05-21T12:54:51;14.27;;;13.07;;
815;SDS011;25928;51.062;13.752;2023-05-21T12:57:18;14.23;;;13.03;;
815;SDS011;25928;51.062;13.752;2023-05-21T13:02:19;15.03;;;13.73;;
815;SDS011;25928;51.062;13.752;2023-05-21T13:04:47;14.93;;;13.73;;
815;SDS011;25928;51.062;13.752;2023-05-21T13:07:13;14.67;;;13.00;;
815;SDS011;25928;51.062;13.752;2023-05-21T13:09:40;16.00;;;14.67;;
815;SDS011;25928;51.062;13.752;2023-05-21T13:12:06;14.33;;;13.03;;
815;SDS011;25928;51.062;13.752;2023-05-21T13:14:32;15.53;;;14.13;;
815;SDS011;25928;51.062;13.752;2023-05-21T13:16:57;15.43;;;14.13;;
815;SDS011;25928;51.062;13.752;2023-05-21T13:19:23;14.93;;;13.33;;
815;SDS011;25928;51.062;13.752;2023-05-21T13:21:49;16.73;;;15.33;;
815;SDS011;25928;51.062;13.752;2023-05-21T13:24:15;17.40;;;15.83;;
815;SDS011;25928;51.062;13.752;2023-05-21T13:26:40;15.00;;;13.80;;
815;SDS011;25928;51.062;13.752;2023-05-21T13:29:06;15.10;;;13.87;;
815;SDS011;25928;51.062;13.752;2023-05-21T13:31:31;15.90;;;14.43;;
815;SDS011;25928;51.062;13.752;2023-05-21T13:33:57;13.57;;;12.50;;
815;SDS011;25928;51.062;13.752;2023-05-21T13:36:23;15.57;;;13.20;;
815;SDS011;25928;51.062;13.752;2023-05-21T13:38:48;12.97;;;11.87;;
815;SDS011;25928;51.062;13.752;2023-05-21T13:41:14;15.00;;;13.70;;
815;SDS011;25928;51.062;13.752;2023-05-21T13:43:42;14.90;;;13.70;;
815;SDS011;25928;51.062;13.752;2023-05-21T13:46:08;15.60;;;14.00;;
815;SDS011;25928;51.062;13.752;2023-05-21T13:48:33;15.67;;;14.27;;
815;SDS011;25928;51.062;13.752;2023-05-21T13:50:59;15.43;;;14.13;;
815;SDS011;25928;51.062;13.752;2023-05-21T13:53:25;14.80;;;13.60;;
815;SDS011;25928;51.062;13.752;2023-05-21T13:55:51;9.87;;;9.07;;
815;SDS011;25928;51.062;13.752;2023-05-21T13:58:16;11.77;;;9.60;;
815;SDS011;25928;51.062;13.752;2023-05-21T14:00:42;8.40;;;7.70;;
815;SDS011;25928;51.062;13.752;2023-05-21T14:03:08;9.40;;;8.60;;
815;SDS011;25928;51.062;13.752;2023-05-21T14:05:34;9.10;;;8.30;;
815;SDS011;25928;51.062;13.752;2023-05-21T14:08:00;9.20;;;8.50;;
815;SDS011;25928;51.062;13.752;2023-05-21T14:10:26;9.63;;;8.83;;
815;SDS011;25928;51.062;13.752;2023-05-21T14:12:52;10.50;;;9.50;;
815;SDS011;25928;51.062;13.752;2023-05-21T14:15:17;10.03;;;9.23;;
815;SDS011;25928;51.062;13.752;2023-05-21T14:17:43;10.83;;;10.03;;
815;SDS011;25928;51.062;13.752;2023-05-21T14:20:09;10.03;;;9.13;;
815;SDS011;25928;51.062;13.752;2023-05-21T14:22:35;11.23;;;10.23;;
815;SDS011;25928;51.062;13.752;2023-05-21T14:25:00;10.50;;;9.40;;
815;SDS011;25928;51.062;13.752;2023-05-21T14:27:27;10.50;;;9.60;;
815;SDS011;25928;51.062;13.752;2023-05-21T14:29:52;10.17;;;9.37;;
815;SDS011;25928;51.062;13.752;2023-05-21T14:32:18;11.70;;;9.67;;
815;SDS011;25928;51.062;13.752;2023-05-21T14:34:43;10.80;;;9.90;;
815;SDS011;25928;51.062;13.752;2023-05-21T14:37:09;10.60;;;9.60;;
815;SDS011;25928;51.062;13.752;2023-05-21T14:39:35;11.00;;;10.03;;
815;SDS011;25928;51.062;13.752;2023-05-21T14:42:03;10.23;;;9.37;;
815;SDS011;25928;51.062;13.752;2023-05-21T14:44:29;10.47;;;9.47;;
815;SDS011;25928;51.062;13.752;2023-05-21T14:46:55;10.67;;;9.80;;
815;SDS011;25928;51.062;13.752;2023-05-21T14:49:21;9.80;;;9.00;;
815;SDS011;25928;51.062;13.752;2023-05-21T14:51:47;10.23;;;9.33;;
815;SDS011;25928;51.062;13.752;2023-05-21T14:54:12;9.50;;;8.77;;
815;SDS011;25928;51.062;13.752;2023-05-21T14:56:38;9.57;;;8.70;;
815;SDS011;25928;51.062;13.752;2023-05-21T14:59:05;9.07;;;8.27;;
815;SDS011;25928;51.062;13.752;2023-05-21T15:01:30;9.33;;;8.50;;
815;SDS011;25928;51.062;13.752;2023-05-21T15:03:56;9.67;;;8.83;;
815;SDS011;25928;51.062;13.752;2023-05-21T15:06:22;9.77;;;8.97;;
815;SDS011;25928;51.062;13.752;2023-05-21T15:08:48;9.87;;;8.90;;
815;SDS011;25928;51.062;13.752;2023-05-21T15:11:13;9.27;;;8.47;;